This is the latest recevied weather packets stored in our database for station/object N5MDT. If no packets are shown the sender has not sent any weather packets the latest 10 day(s).
| Time | Temp. | Humidity | Pressure | Rain* | Wind** | Luminosity | Snow |
|---|---|---|---|---|---|---|---|
| 1777942705 | 26.67° C | 67% | 1010.6 hPa | 0 mm | - | - | - |
| 1777940905 | 27.22° C | 65% | 1010.9 hPa | 0 mm | - | - | - |
| 1777940305 | 27.78° C | 64% | 1010.9 hPa | 0 mm | - | - | - |
| 1777939705 | 27.78° C | 63% | 1010.9 hPa | 0 mm | - | - | - |
| 1777939105 | 27.78° C | 62% | 1010.9 hPa | 0 mm | - | - | - |
| 1777934304 | 29.44° C | 58% | 1011.5 hPa | 0 mm | - | - | - |
| 1777933704 | 29.44° C | 58% | 1011.9 hPa | 0 mm | - | - | - |
| 1777933104 | 30° C | 56% | 1011.8 hPa | 0 mm | - | - | - |
| 1777932504 | 30° C | 55% | 1012 hPa | 0 mm | - | - | - |
| 1777931904 | 30.56° C | 56% | 1012 hPa | 0 mm | - | - | - |
| 1777931304 | 30.56° C | 54% | 1012.1 hPa | 0 mm | - | - | - |
| 1777930704 | 31.11° C | 54% | 1012.2 hPa | 0 mm | - | - | - |
| 1777930103 | 31.11° C | 54% | 1012.3 hPa | 0 mm | - | - | - |
| 1777929503 | 31.11° C | 54% | 1012.5 hPa | 0 mm | - | - | - |
| 1777928904 | 31.11° C | 55% | 1012.5 hPa | 0 mm | - | - | - |
| 1777927103 | 30° C | 58% | 1013 hPa | 0 mm | - | - | - |
| 1777926503 | 29.44° C | 58% | 1013.2 hPa | 0 mm | - | - | - |
| 1777925903 | 29.44° C | 58% | 1013.4 hPa | 0 mm | - | - | - |
| 1777925303 | 29.44° C | 56% | 1013.7 hPa | 0 mm | - | - | - |
| 1777924703 | 29.44° C | 59% | 1013.7 hPa | 0 mm | - | - | - |
| 1777924103 | 28.89° C | 59% | 1013.9 hPa | 0 mm | - | - | - |
| 1777923533 | 28.33° C | 60% | 1014 hPa | 0 mm | - | - | - |
| 1777922903 | 28.33° C | 60% | 1014.3 hPa | 0 mm | - | - | - |
| 1777922303 | 27.78° C | 61% | 1014.3 hPa | 0 mm | - | - | - |
| 1777921703 | 27.78° C | 61% | 1014.4 hPa | 0 mm | - | - | - |
* Rain latest hour (hover to see other rain measurements)
** Current wind speed in m/s (hover to see current wind gust speed)